Time;durP1;ratioP1;P1;durP2;ratioP2;P2;SDS_P1;SDS_P2;PMS_P1;PMS_P2;Temp;Humidity;BMP_temperature;BMP_pressure;BME280_temperature;BME280_humidity;BME280_pressure;Samples;Min_cycle;Max_cycle;Signal;HPM_P1;HPM_P2
2023/01/07 00:00:45;;;;;;;10.95;5.85;;;;;;;7.94;100.00;99310.63;5021519;28;20096;-73
2023/01/07 00:03:10;;;;;;;9.13;6.10;;;;;;;7.88;100.00;99303.22;5015350;28;20739;-73
2023/01/07 00:05:36;;;;;;;9.52;5.97;;;;;;;7.99;100.00;99324.44;5025455;28;20061;-73
2023/01/07 00:08:01;;;;;;;8.38;5.75;;;;;;;7.95;100.00;99323.09;5013182;28;20025;-73
2023/01/07 00:10:26;;;;;;;11.68;6.88;;;;;;;7.86;100.00;99306.13;5029322;28;20036;-73
2023/01/07 00:12:53;;;;;;;11.75;7.72;;;;;;;7.82;100.00;99301.25;5022021;28;20441;-73
2023/01/07 00:15:18;;;;;;;12.52;7.97;;;;;;;7.84;100.00;99305.44;5029671;28;20112;-72
2023/01/07 00:17:43;;;;;;;10.98;6.55;;;;;;;7.90;100.00;99314.69;5031243;28;20112;-73
2023/01/07 00:22:44;;;;;;;10.18;5.95;;;;;;;7.93;100.00;99314.34;5013696;28;20750;-60
2023/01/07 00:25:09;;;;;;;10.05;5.35;;;;;;;7.96;100.00;99313.97;5017398;28;20026;-60
2023/01/07 00:27:34;;;;;;;10.93;5.70;;;;;;;7.95;100.00;99306.91;4995903;28;20388;-60
2023/01/07 00:30:00;;;;;;;10.90;5.63;;;;;;;7.99;100.00;99310.09;4988094;28;20092;-60
2023/01/07 00:32:48;;;;;;;8.52;5.28;;;;;;;8.03;100.00;99298.81;4989806;28;20033;-59
2023/01/07 00:35:22;;;;;;;8.68;5.45;;;;;;;8.05;100.00;99291.38;5010780;28;20033;-60
2023/01/07 00:37:49;;;;;;;10.75;5.82;;;;;;;8.06;100.00;99292.22;4989541;28;20018;-60
2023/01/07 00:40:15;;;;;;;22.00;10.18;;;;;;;8.06;100.00;99294.91;4991780;28;20473;-60
2023/01/07 00:45:24;;;;;;;13.45;6.25;;;;;;;8.06;100.00;99292.22;5009471;28;20032;-61
2023/01/07 00:47:53;;;;;;;10.75;5.10;;;;;;;8.06;100.00;99281.44;4994847;28;20025;-60
2023/01/07 00:50:24;;;;;;;8.07;4.70;;;;;;;7.99;100.00;99289.41;4994023;28;20026;-61
2023/01/07 00:52:49;;;;;;;9.65;5.53;;;;;;;7.91;100.00;99286.72;5003730;28;20112;-61
2023/01/07 00:55:15;;;;;;;8.27;5.60;;;;;;;7.84;100.00;99286.59;4993711;28;20468;-61
2023/01/07 00:57:41;;;;;;;8.60;5.15;;;;;;;7.82;100.00;99279.69;5003950;28;20033;-60
2023/01/07 01:00:08;;;;;;;9.45;5.57;;;;;;;7.80;100.00;99279.03;4999939;28;20014;-61
2023/01/07 01:02:34;;;;;;;8.55;5.30;;;;;;;7.77;100.00;99277.50;4991791;28;20023;-61
2023/01/07 01:04:59;;;;;;;12.00;6.45;;;;;;;7.79;100.00;99274.66;4999848;28;20504;-60
2023/01/07 01:07:24;;;;;;;10.82;6.80;;;;;;;7.83;100.00;99267.91;4992740;28;20026;-60
2023/01/07 01:09:50;;;;;;;13.07;7.32;;;;;;;7.86;100.00;99271.09;4995232;28;20026;-60
2023/01/07 01:12:15;;;;;;;17.90;7.63;;;;;;;7.85;100.00;99265.88;5002541;28;20099;-60
2023/01/07 01:14:41;;;;;;;15.40;7.97;;;;;;;7.86;100.00;99270.25;5016664;28;20063;-61
2023/01/07 01:17:06;;;;;;;12.00;7.07;;;;;;;7.82;100.00;99263.53;5008607;28;20192;-60
2023/01/07 01:19:31;;;;;;;9.35;6.35;;;;;;;7.80;100.00;99265.56;5004882;28;20018;-60
2023/01/07 01:21:57;;;;;;;9.80;6.07;;;;;;;7.79;100.00;99269.28;4986603;28;20033;-61
2023/01/07 01:24:22;;;;;;;10.35;6.10;;;;;;;7.81;100.00;99262.69;4989790;28;20037;-61
2023/01/07 01:26:47;;;;;;;8.88;5.80;;;;;;;7.85;100.00;99271.25;4991413;28;20484;-60
2023/01/07 01:29:13;;;;;;;9.93;6.05;;;;;;;7.84;100.00;99273.13;4995095;28;20462;-60
2023/01/07 01:31:38;;;;;;;12.23;6.13;;;;;;;7.84;100.00;99272.28;5002738;28;20179;-61
2023/01/07 01:34:03;;;;;;;9.80;6.38;;;;;;;7.85;100.00;99265.88;5008679;28;20057;-64
2023/01/07 01:36:29;;;;;;;10.93;6.00;;;;;;;7.86;100.00;99264.88;4997021;28;20030;-61
2023/01/07 01:38:56;;;;;;;8.15;5.13;;;;;;;7.86;100.00;99263.00;5006751;28;20061;-60
2023/01/07 01:41:21;;;;;;;10.43;6.15;;;;;;;7.87;100.00;99263.84;5009106;28;20461;-60
2023/01/07 01:43:47;;;;;;;8.38;5.43;;;;;;;7.89;100.00;99264.53;5005705;28;20084;-61
2023/01/07 01:46:23;;;;;;;9.07;5.22;;;;;;;7.92;100.00;99264.16;5005802;28;20761;-60
2023/01/07 01:49:19;;;;;;;10.55;5.88;;;;;;;7.95;100.00;99260.28;5007518;28;20108;-60
2023/01/07 01:51:59;;;;;;;10.82;5.47;;;;;;;7.94;100.00;99261.28;4962314;28;20062;-61
2023/01/07 01:54:25;;;;;;;9.43;5.57;;;;;;;7.92;100.00;99258.78;4984548;28;20025;-61
2023/01/07 01:56:53;;;;;;;10.77;5.40;;;;;;;7.94;100.00;99250.50;5006556;28;20034;-61
2023/01/07 01:59:23;;;;;;;10.18;4.35;;;;;;;7.89;100.00;99251.06;4984057;28;20504;-60
2023/01/07 02:01:49;;;;;;;7.78;4.38;;;;;;;7.92;100.00;99257.94;4988960;28;20033;-60
2023/01/07 02:04:23;;;;;;;7.93;3.78;;;;;;;7.94;100.00;99245.13;5010029;28;20405;-60
2023/01/07 02:07:10;;;;;;;7.97;3.75;;;;;;;7.89;100.00;99243.81;5002068;28;20030;-60
2023/01/07 02:09:36;;;;;;;5.85;3.42;;;;;;;7.88;100.00;99241.28;4986965;28;20100;-61
2023/01/07 02:12:59;;;;;;;10.30;6.00;;;;;;;7.77;100.00;99242.50;4992879;28;20049;-60
2023/01/07 02:15:37;;;;;;;8.98;4.38;;;;;;;7.68;100.00;99241.69;4930644;29;20436;-60
2023/01/07 02:18:28;;;;;;;9.63;4.90;;;;;;;7.73;100.00;99229.56;4991079;28;20044;-61
2023/01/07 02:21:32;;;;;;;6.80;4.30;;;;;;;7.78;100.00;99224.47;4989414;28;20125;-60
2023/01/07 02:24:26;;;;;;;8.98;4.03;;;;;;;7.82;100.00;99237.44;4968189;28;20035;-60
2023/01/07 02:27:10;;;;;;;6.50;3.35;;;;;;;7.83;100.00;99228.34;4990327;28;20046;-60
2023/01/07 02:29:44;;;;;;;7.72;4.05;;;;;;;7.86;100.00;99225.31;5011347;28;20029;-60
2023/01/07 02:32:34;;;;;;;5.30;3.45;;;;;;;7.84;100.00;99224.63;4996866;28;20176;-61
2023/01/07 02:35:11;;;;;;;5.43;3.30;;;;;;;7.85;100.00;99220.91;4992531;28;20030;-60
2023/01/07 02:37:48;;;;;;;6.15;2.97;;;;;;;7.87;100.00;99223.44;5002678;28;20034;-60
2023/01/07 02:40:33;;;;;;;6.07;3.08;;;;;;;7.94;100.00;99220.88;4991193;28;20026;-61
2023/01/07 02:43:23;;;;;;;5.70;2.80;;;;;;;7.95;100.00;99214.47;4996523;28;20477;-60
2023/01/07 02:46:01;;;;;;;6.70;3.60;;;;;;;7.90;100.00;99206.91;4989125;28;20026;-60
2023/01/07 02:48:27;;;;;;;6.07;4.25;;;;;;;7.88;100.00;99208.94;4996159;28;20052;-60
2023/01/07 02:50:52;;;;;;;6.80;4.35;;;;;;;7.90;100.00;99201.53;4991294;28;20040;-60
2023/01/07 02:53:19;;;;;;;7.97;4.63;;;;;;;7.87;100.00;99193.81;5004880;28;20129;-60
2023/01/07 02:55:57;;;;;;;7.07;4.65;;;;;;;7.82;100.00;99197.03;5010716;28;20026;-60
2023/01/07 02:58:40;;;;;;;9.07;4.65;;;;;;;7.82;100.00;99190.81;4997100;28;20029;-60
2023/01/07 03:01:24;;;;;;;10.35;4.65;;;;;;;7.80;100.00;99190.97;5020384;28;20092;-61
2023/01/07 03:04:11;;;;;;;12.43;4.35;;;;;;;7.78;100.00;99189.47;4990854;28;20430;-60
2023/01/07 03:06:55;;;;;;;8.40;4.18;;;;;;;7.76;100.00;99183.44;4978718;28;20113;-60
2023/01/07 03:09:40;;;;;;;9.52;3.95;;;;;;;7.79;100.00;99173.13;5004217;28;20531;-60
2023/01/07 03:12:20;;;;;;;7.18;3.42;;;;;;;7.88;100.00;99171.22;5002798;28;20034;-61
2023/01/07 03:15:24;;;;;;;5.03;3.25;;;;;;;7.88;100.00;99176.63;5000697;28;20040;-61
2023/01/07 03:18:07;;;;;;;7.07;3.38;;;;;;;7.87;100.00;99175.78;4969950;28;20037;-60
2023/01/07 03:20:36;;;;;;;5.60;3.33;;;;;;;7.87;100.00;99174.97;4986100;28;20030;-60
2023/01/07 03:23:05;;;;;;;6.75;3.25;;;;;;;7.92;100.00;99164.50;4994307;28;20034;-60
2023/01/07 03:25:36;;;;;;;5.60;3.28;;;;;;;7.92;100.00;99161.78;5002384;28;20030;-60
2023/01/07 03:28:04;;;;;;;5.15;3.25;;;;;;;7.92;100.00;99156.41;4994554;28;20041;-60
2023/01/07 03:30:30;;;;;;;7.13;3.60;;;;;;;7.94;100.00;99149.00;4993481;28;20129;-60
2023/01/07 03:33:08;;;;;;;4.50;3.15;;;;;;;7.96;100.00;99141.53;4997352;28;20042;-60
2023/01/07 03:35:37;;;;;;;5.30;3.33;;;;;;;7.98;100.00;99139.53;4995944;28;20026;-60
2023/01/07 03:38:03;;;;;;;9.57;3.45;;;;;;;8.01;100.00;99143.72;4999707;28;20385;-60
2023/01/07 03:40:30;;;;;;;5.20;2.90;;;;;;;8.03;100.00;99147.06;4980752;28;20054;-60
2023/01/07 03:42:55;;;;;;;5.90;3.28;;;;;;;8.02;100.00;99145.41;4997414;28;20026;-60
2023/01/07 03:45:23;;;;;;;9.75;3.30;;;;;;;8.03;100.00;99141.69;4998474;28;20035;-60
2023/01/07 03:47:51;;;;;;;7.20;3.45;;;;;;;8.02;100.00;99134.63;5016423;28;20041;-61
2023/01/07 03:50:17;;;;;;;8.77;4.15;;;;;;;7.98;100.00;99144.91;4985966;28;20019;-60
2023/01/07 03:52:43;;;;;;;8.63;4.68;;;;;;;7.94;100.00;99137.34;4996557;28;20092;-64
2023/01/07 03:55:09;;;;;;;7.93;4.63;;;;;;;7.67;100.00;99110.75;5015410;22;20038;-73
2023/01/07 03:57:35;;;;;;;7.88;4.75;;;;;;;7.83;100.00;99125.13;5014876;28;20049;-73
2023/01/07 04:00:00;;;;;;;7.40;4.57;;;;;;;7.68;100.00;99107.06;5013822;28;20078;-73
2023/01/07 04:02:26;;;;;;;7.28;4.03;;;;;;;7.81;100.00;99113.72;5003766;28;20135;-73
2023/01/07 04:04:52;;;;;;;5.97;3.65;;;;;;;7.91;100.00;99108.91;4994796;28;20022;-73
2023/01/07 04:07:17;;;;;;;6.35;3.75;;;;;;;7.86;100.00;99111.34;4993523;28;20081;-72
2023/01/07 04:09:45;;;;;;;4.97;2.65;;;;;;;7.88;100.00;99117.34;4993993;28;20026;-72
2023/01/07 04:12:11;;;;;;;5.53;3.33;;;;;;;7.89;100.00;99119.06;4993798;28;20031;-72
2023/01/07 04:14:36;;;;;;;6.00;2.30;;;;;;;7.75;100.00;99090.16;4993304;28;20045;-73
2023/01/07 04:17:01;;;;;;;7.07;3.00;;;;;;;7.91;100.00;99111.59;4968759;28;20050;-73
2023/01/07 04:19:27;;;;;;;5.05;2.95;;;;;;;7.84;100.00;99097.19;5006233;28;20072;-72
2023/01/07 04:21:52;;;;;;;3.85;2.70;;;;;;;7.86;100.00;99087.09;4994621;28;20026;-73
2023/01/07 04:24:17;;;;;;;3.88;2.60;;;;;;;7.88;100.00;99102.03;4994050;28;20468;-73
2023/01/07 04:26:43;;;;;;;3.30;2.40;;;;;;;7.83;100.00;99088.28;4993968;28;20030;-73
2023/01/07 04:29:09;;;;;;;4.32;2.17;;;;;;;7.90;100.00;99100.00;4992428;28;20038;-72
2023/01/07 04:31:35;;;;;;;3.25;2.15;;;;;;;7.94;100.00;99089.72;4991654;28;20058;-73
2023/01/07 04:34:00;;;;;;;2.88;2.20;;;;;;;7.90;100.00;99093.78;4976599;28;20030;-73
2023/01/07 04:36:25;;;;;;;4.05;2.17;;;;;;;7.92;100.00;99097.13;4991509;28;20129;-72
2023/01/07 04:38:51;;;;;;;3.35;2.28;;;;;;;8.00;100.00;99090.84;4993463;28;20092;-73
2023/01/07 04:41:17;;;;;;;3.47;2.10;;;;;;;7.99;100.00;99087.31;4976522;28;20138;-72
2023/01/07 04:43:42;;;;;;;3.80;2.00;;;;;;;8.04;100.00;99081.38;4975961;28;20109;-72
2023/01/07 04:46:07;;;;;;;3.22;1.98;;;;;;;7.90;100.00;99073.06;4992469;28;20488;-73
2023/01/07 04:48:33;;;;;;;6.32;3.13;;;;;;;7.89;100.00;99075.94;4993248;28;20034;-73
2023/01/07 04:50:58;;;;;;;4.03;2.83;;;;;;;7.84;100.00;99065.69;4993574;28;20032;-72
2023/01/07 04:53:23;;;;;;;4.82;2.75;;;;;;;7.86;100.00;99081.69;4993805;28;20421;-72
2023/01/07 04:55:49;;;;;;;4.35;2.67;;;;;;;7.81;100.00;99084.91;4994209;28;20030;-72
2023/01/07 04:58:14;;;;;;;5.07;3.08;;;;;;;7.66;100.00;99065.16;4993254;28;20469;-72
2023/01/07 05:00:39;;;;;;;4.88;3.20;;;;;;;7.79;100.00;99061.88;4993763;28;20026;-72
2023/01/07 05:03:05;;;;;;;4.82;2.78;;;;;;;7.69;100.00;99054.84;4977014;28;20022;-73
2023/01/07 05:05:30;;;;;;;4.93;2.53;;;;;;;7.66;100.00;99063.28;4994065;28;20118;-72
2023/01/07 05:07:55;;;;;;;4.75;2.72;;;;;;;7.73;100.00;99071.50;4999651;28;20034;-73
2023/01/07 05:10:21;;;;;;;6.32;2.67;;;;;;;7.68;100.00;99046.97;5012979;28;20042;-72
2023/01/07 05:12:46;;;;;;;4.00;1.92;;;;;;;7.71;100.00;99048.47;5011474;28;20030;-71
2023/01/07 05:15:11;;;;;;;5.68;2.55;;;;;;;7.71;100.00;99057.38;5013765;28;20049;-73
2023/01/07 05:17:37;;;;;;;3.47;2.30;;;;;;;7.75;100.00;99047.06;5011182;28;20041;-72
2023/01/07 05:20:04;;;;;;;4.07;2.42;;;;;;;7.80;100.00;99052.75;4996615;28;20042;-72
2023/01/07 05:22:29;;;;;;;6.65;2.17;;;;;;;7.86;100.00;99055.59;5010128;28;20041;-72
2023/01/07 05:24:55;;;;;;;2.88;1.92;;;;;;;7.83;100.00;99047.88;5003913;28;20508;-73
2023/01/07 05:27:20;;;;;;;7.57;3.40;;;;;;;7.86;100.00;99046.69;4995725;28;20445;-75
2023/01/07 05:29:45;;;;;;;7.07;3.58;;;;;;;7.78;100.00;99035.94;4994120;28;20094;-76
2023/01/07 05:32:10;;;;;;;11.02;2.95;;;;;;;7.77;100.00;99028.88;4995368;28;20025;-77
2023/01/07 05:34:36;;;;;;;8.00;3.17;;;;;;;7.78;100.00;99033.25;5006037;28;20710;-76
2023/01/07 05:37:01;;;;;;;4.63;2.90;;;;;;;7.71;100.00;99030.44;4984554;28;20026;-76
2023/01/07 05:39:26;;;;;;;3.55;2.70;;;;;;;7.82;100.00;99029.19;4993943;28;20519;-76
2023/01/07 05:41:51;;;;;;;4.25;2.67;;;;;;;7.84;100.00;99022.59;4992816;28;20122;-76
2023/01/07 05:44:17;;;;;;;3.83;2.78;;;;;;;7.81;100.00;99033.75;4989955;28;20037;-76
2023/01/07 05:46:42;;;;;;;3.75;2.30;;;;;;;7.77;100.00;99024.34;4996957;28;20026;-76
2023/01/07 05:49:08;;;;;;;4.63;2.53;;;;;;;7.74;100.00;99013.09;4996426;28;20030;-76
2023/01/07 05:51:34;;;;;;;6.55;2.88;;;;;;;7.76;100.00;99016.44;4995494;28;20030;-76
2023/01/07 05:53:59;;;;;;;4.90;2.42;;;;;;;7.76;100.00;99011.06;5000097;28;20038;-76
2023/01/07 05:56:24;;;;;;;4.63;2.90;;;;;;;7.84;100.00;99011.81;4982279;28;20038;-76
2023/01/07 05:58:49;;;;;;;5.45;2.30;;;;;;;7.83;100.00;99017.38;4996195;28;20432;-77
2023/01/07 06:01:15;;;;;;;5.93;2.75;;;;;;;7.78;100.00;99009.00;4995581;28;20062;-76
2023/01/07 06:03:40;;;;;;;5.57;2.90;;;;;;;7.84;100.00;99000.22;4994913;28;20491;-78
2023/01/07 06:06:06;;;;;;;6.65;2.40;;;;;;;7.75;100.00;98991.34;4996932;28;20109;-78
2023/01/07 06:08:36;;;;;;;5.07;3.22;;;;;;;7.73;100.00;98995.25;4997357;28;20032;-76
2023/01/07 06:11:02;;;;;;;6.05;2.92;;;;;;;7.77;100.00;99002.78;5009315;28;20029;-78
2023/01/07 06:13:27;;;;;;;4.38;2.80;;;;;;;7.75;100.00;98994.03;4988580;28;20026;-76
2023/01/07 06:15:58;;;;;;;7.28;2.88;;;;;;;7.79;100.00;98997.22;4995453;28;20088;-78
2023/01/07 06:18:23;;;;;;;3.72;2.60;;;;;;;7.78;100.00;99003.63;4978964;28;20022;-78
2023/01/07 06:20:49;;;;;;;8.20;2.90;;;;;;;7.56;100.00;98968.44;5015097;22;20472;-73
2023/01/07 06:23:14;;;;;;;4.25;2.60;;;;;;;7.75;100.00;98996.75;5011230;28;20038;-71
2023/01/07 06:25:40;;;;;;;4.20;2.97;;;;;;;7.76;100.00;98998.44;5025849;28;20052;-72
2023/01/07 06:28:05;;;;;;;5.75;2.90;;;;;;;7.69;100.00;98990.22;5028523;28;20029;-72
2023/01/07 06:30:30;;;;;;;7.97;4.70;;;;;;;7.63;100.00;98973.97;5034481;28;20029;-72
2023/01/07 06:32:56;;;;;;;4.75;2.92;;;;;;;7.67;100.00;98970.72;5014597;28;20033;-73
2023/01/07 06:35:21;;;;;;;5.97;2.22;;;;;;;7.80;100.00;98967.41;5012789;28;20471;-73
2023/01/07 06:37:46;;;;;;;2.85;2.17;;;;;;;7.90;100.00;98989.53;5008857;28;20022;-73
2023/01/07 06:40:12;;;;;;;4.88;2.60;;;;;;;7.75;100.00;98964.41;5013486;28;20479;-79
2023/01/07 06:42:38;;;;;;;4.43;2.72;;;;;;;7.79;100.00;98963.06;4998492;28;20618;-75
2023/01/07 06:45:03;;;;;;;3.60;2.35;;;;;;;7.76;100.00;98954.50;4995177;28;20025;-72
2023/01/07 06:47:29;;;;;;;5.57;3.03;;;;;;;7.73;100.00;98950.31;4996283;28;20034;-82
2023/01/07 06:49:54;;;;;;;7.65;3.70;;;;;;;7.62;100.00;98942.66;5001958;28;20026;-78
2023/01/07 06:52:19;;;;;;;8.50;3.03;;;;;;;7.75;100.00;98955.50;4997621;28;20060;-72
2023/01/07 06:54:45;;;;;;;4.90;2.33;;;;;;;7.93;100.00;98963.28;5014350;28;20060;-73
2023/01/07 06:57:10;;;;;;;3.40;1.80;;;;;;;7.74;100.00;98910.75;5012069;28;20037;-74
2023/01/07 06:59:36;;;;;;;2.53;1.90;;;;;;;8.05;100.00;98954.56;4991483;28;20106;-73
2023/01/07 07:02:01;;;;;;;2.75;1.60;;;;;;;7.99;100.00;98932.88;5011880;28;20147;-73
2023/01/07 07:04:26;;;;;;;1.90;1.40;;;;;;;8.12;100.00;98949.25;4997422;28;20030;-73
2023/01/07 07:06:51;;;;;;;3.65;1.67;;;;;;;8.02;100.00;98935.25;4992514;28;20070;-73
2023/01/07 07:09:17;;;;;;;2.70;1.70;;;;;;;8.02;100.00;98929.84;5006266;28;20042;-73
2023/01/07 07:11:42;;;;;;;2.58;1.45;;;;;;;8.09;100.00;98952.31;5008125;28;20552;-73
2023/01/07 07:14:08;;;;;;;2.92;1.60;;;;;;;8.09;100.00;98950.47;4997910;28;20026;-74
2023/01/07 07:16:33;;;;;;;2.67;1.70;;;;;;;8.10;100.00;98945.94;4988855;28;20460;-73
2023/01/07 07:18:59;;;;;;;3.78;1.70;;;;;;;8.03;100.00;98936.91;5007976;28;20069;-76
2023/01/07 07:21:24;;;;;;;2.13;1.40;;;;;;;8.03;100.00;98936.91;5008517;28;20415;-75
2023/01/07 07:23:49;;;;;;;3.58;1.80;;;;;;;8.04;100.00;98928.66;5005452;28;20109;-74
2023/01/07 07:26:14;;;;;;;3.00;1.83;;;;;;;8.09;100.00;98945.06;5008470;28;20037;-73
2023/01/07 07:28:41;;;;;;;3.47;1.70;;;;;;;8.02;100.00;98927.16;5009424;28;20102;-73
2023/01/07 07:31:08;;;;;;;2.80;1.70;;;;;;;8.12;100.00;98941.19;5004947;28;20030;-74
2023/01/07 07:33:33;;;;;;;3.05;1.70;;;;;;;8.16;100.00;98936.28;5005121;28;20151;-72
2023/01/07 07:35:59;;;;;;;3.50;1.77;;;;;;;8.16;100.00;98934.41;5010735;28;20096;-73
2023/01/07 07:38:24;;;;;;;2.95;1.70;;;;;;;8.18;100.00;98931.53;5008946;28;20034;-77
2023/01/07 07:40:49;;;;;;;3.10;1.70;;;;;;;8.21;100.00;98936.56;5007047;28;20033;-73
2023/01/07 07:43:15;;;;;;;3.50;1.55;;;;;;;8.08;100.00;98921.03;5007988;28;20030;-73
2023/01/07 07:45:41;;;;;;;3.30;1.70;;;;;;;8.10;100.00;98927.91;5008566;28;20029;-74
2023/01/07 07:48:12;;;;;;;3.33;1.77;;;;;;;8.21;100.00;98933.88;5010529;28;20025;-73
2023/01/07 07:50:38;;;;;;;5.28;1.90;;;;;;;8.10;100.00;98910.91;5005973;28;20036;-73
2023/01/07 07:53:03;;;;;;;2.33;1.70;;;;;;;8.18;100.00;98928.84;5006986;28;20515;-81
2023/01/07 07:55:29;;;;;;;3.55;1.90;;;;;;;8.18;100.00;98926.16;5014954;28;20026;-73
2023/01/07 07:57:57;;;;;;;3.13;1.90;;;;;;;8.20;100.00;98918.69;5011346;28;20036;-74
2023/01/07 08:00:22;;;;;;;5.22;1.88;;;;;;;8.19;100.00;98925.13;5011002;28;20022;-71
2023/01/07 08:02:48;;;;;;;3.67;1.95;;;;;;;8.17;100.00;98914.50;5002527;28;20037;-73
2023/01/07 08:05:13;;;;;;;4.97;2.05;;;;;;;8.11;100.00;98897.22;4989180;28;20025;-77
2023/01/07 08:07:38;;;;;;;3.97;2.00;;;;;;;8.19;100.00;98915.16;4984622;28;20046;-75
2023/01/07 08:10:05;;;;;;;2.72;1.70;;;;;;;8.28;100.00;98921.31;5007571;28;20037;-75
2023/01/07 08:12:31;;;;;;;3.38;2.08;;;;;;;8.17;100.00;98902.91;5001553;28;20065;-82
2023/01/07 08:14:56;;;;;;;4.05;2.13;;;;;;;8.18;100.00;98907.28;4994880;28;20069;-77
2023/01/07 08:17:22;;;;;;;3.58;1.80;;;;;;;8.19;100.00;98914.34;4996173;28;20022;-75
2023/01/07 08:19:47;;;;;;;4.03;2.30;;;;;;;8.13;100.00;98892.50;4995123;28;20018;-76
2023/01/07 08:22:13;;;;;;;2.72;1.67;;;;;;;8.09;100.00;98882.25;5003643;28;20033;-75
2023/01/07 08:24:38;;;;;;;2.63;1.48;;;;;;;8.17;100.00;98889.44;4992116;28;20076;-75
2023/01/07 08:27:03;;;;;;;2.85;1.77;;;;;;;8.25;100.00;98900.97;5000832;28;20122;-73
2023/01/07 08:29:28;;;;;;;4.75;1.77;;;;;;;8.18;100.00;98889.25;5007224;28;20021;-75
2023/01/07 08:31:54;;;;;;;2.75;1.63;;;;;;;8.16;100.00;98891.28;5009969;28;20033;-80
2023/01/07 08:34:19;;;;;;;3.90;1.85;;;;;;;8.13;100.00;98897.06;5006382;28;20030;-73
2023/01/07 08:36:44;;;;;;;4.38;1.92;;;;;;;8.04;100.00;98888.25;5008852;28;20021;-73
2023/01/07 08:39:11;;;;;;;3.08;2.05;;;;;;;8.17;100.00;98911.00;4995453;28;20041;-74
2023/01/07 08:41:36;;;;;;;3.45;2.03;;;;;;;8.06;100.00;98894.25;5003431;28;20038;-76
2023/01/07 08:44:01;;;;;;;3.65;1.75;;;;;;;7.91;100.00;98871.84;4984829;28;20071;-75
2023/01/07 08:46:27;;;;;;;2.75;1.50;;;;;;;8.00;100.00;98886.91;5008148;28;20407;-73
2023/01/07 08:48:52;;;;;;;3.58;2.05;;;;;;;8.06;100.00;98899.63;5005649;28;20076;-74
2023/01/07 08:51:17;;;;;;;2.33;1.45;;;;;;;8.05;100.00;98881.81;4989987;28;20502;-75
2023/01/07 08:53:43;;;;;;;2.15;1.35;;;;;;;8.10;100.00;98882.09;5008248;28;20026;-77
2023/01/07 08:56:08;;;;;;;3.53;1.67;;;;;;;8.19;100.00;98888.22;4993449;28;20434;-72
2023/01/07 08:58:33;;;;;;;2.92;1.45;;;;;;;8.06;100.00;98866.47;5007013;28;20029;-72
2023/01/07 09:01:01;;;;;;;6.43;2.20;;;;;;;8.19;100.00;98876.59;5004006;28;20030;-75
2023/01/07 09:03:27;;;;;;;2.92;1.85;;;;;;;8.18;100.00;98865.00;5005945;28;20036;-75
2023/01/07 09:05:52;;;;;;;2.67;1.70;;;;;;;8.37;100.00;98895.09;4983701;28;20380;-73
2023/01/07 09:08:17;;;;;;;3.30;1.80;;;;;;;8.26;100.00;98866.75;5001556;28;20033;-76
2023/01/07 09:10:42;;;;;;;3.47;1.77;;;;;;;8.41;100.00;98880.25;5005689;28;20026;-76
2023/01/07 09:13:08;;;;;;;4.20;2.00;;;;;;;8.39;100.00;98883.13;5008075;28;20033;-75
2023/01/07 09:15:33;;;;;;;3.65;1.95;;;;;;;8.29;100.00;98842.94;4991640;28;20038;-76
2023/01/07 09:17:58;;;;;;;4.50;1.83;;;;;;;8.39;100.00;98856.19;5004512;28;20058;-72
2023/01/07 09:20:23;;;;;;;6.20;1.95;;;;;;;8.54;100.00;98869.63;5005099;28;20026;-75
2023/01/07 09:22:49;;;;;;;3.60;2.03;;;;;;;8.49;100.00;98864.81;4989885;28;20033;-75
2023/01/07 09:25:14;;;;;;;2.38;1.40;;;;;;;8.59;100.00;98863.66;5011994;28;20502;-79
2023/01/07 09:27:41;;;;;;;2.58;1.35;;;;;;;8.49;100.00;98862.13;4991960;28;20029;-80
2023/01/07 09:30:08;;;;;;;2.45;1.60;;;;;;;8.64;100.00;98870.16;4990588;28;20633;-77
2023/01/07 09:32:33;;;;;;;2.80;1.60;;;;;;;8.73;100.00;98868.22;4989352;28;20042;-75
2023/01/07 09:34:59;;;;;;;2.35;1.65;;;;;;;8.77;100.00;98872.19;4989460;28;20364;-74
2023/01/07 09:37:24;;;;;;;1.60;1.40;;;;;;;8.82;100.00;98869.75;5007986;28;20145;-76
2023/01/07 09:39:50;;;;;;;2.97;1.60;;;;;;;8.95;100.00;98877.16;4985297;28;20101;-75
2023/01/07 09:42:34;;;;;;;2.78;1.67;;;;;;;8.98;100.00;98877.59;4984954;28;20042;-75
2023/01/07 09:45:11;;;;;;;3.15;1.70;;;;;;;9.15;100.00;98877.38;5004357;28;20034;-74
2023/01/07 09:47:41;;;;;;;5.53;1.60;;;;;;;9.14;100.00;98870.28;5002169;28;20492;-72
2023/01/07 09:50:33;;;;;;;2.10;1.60;;;;;;;8.95;100.00;98856.41;5000559;28;20127;-72
2023/01/07 09:53:06;;;;;;;3.90;2.08;;;;;;;8.90;100.00;98849.91;4971188;28;20107;-72
2023/01/07 09:55:34;;;;;;;3.22;1.58;;;;;;;9.05;100.00;98861.50;5002723;28;20025;-73
2023/01/07 09:58:00;;;;;;;2.50;1.30;;;;;;;9.20;100.00;98843.38;4991439;28;20496;-76
2023/01/07 10:00:25;;;;;;;1.98;1.40;;;;;;;9.24;100.00;98838.41;5007733;28;20038;-75
2023/01/07 10:03:08;;;;;;;3.00;1.40;;;;;;;9.72;100.00;98852.13;5015246;28;20026;-70
2023/01/07 10:05:45;;;;;;;2.67;1.67;;;;;;;10.16;100.00;98850.94;5004477;28;20551;-72
2023/01/07 10:08:44;;;;;;;3.78;2.20;;;;;;;10.48;100.00;98843.22;5000398;28;20065;-71
2023/01/07 10:11:27;;;;;;;3.80;1.60;;;;;;;10.75;100.00;98844.97;5004018;28;20065;-72
2023/01/07 10:14:26;;;;;;;3.00;1.60;;;;;;;10.64;100.00;98844.75;5005627;28;20293;-75
2023/01/07 10:17:28;;;;;;;3.58;1.67;;;;;;;11.18;100.00;98820.28;5003568;28;20022;-74
2023/01/07 10:20:18;;;;;;;2.38;1.33;;;;;;;12.05;100.00;98790.41;4928500;28;20036;-73
2023/01/07 10:22:50;;;;;;;1.88;1.08;;;;;;;12.28;100.00;98806.19;5007343;28;20026;-72
2023/01/07 10:25:27;;;;;;;1.33;0.73;;;;;;;14.32;100.00;98816.81;5002490;28;20096;-70
2023/01/07 10:27:57;;;;;;;2.30;1.08;;;;;;;16.33;89.03;98808.06;5002719;28;20073;-73
2023/01/07 10:30:28;;;;;;;3.30;1.35;;;;;;;16.24;83.03;98793.09;5004880;28;20101;-72
2023/01/07 10:33:23;;;;;;;3.53;0.98;;;;;;;14.11;100.00;98808.03;4987378;28;20125;-74
2023/01/07 10:35:57;;;;;;;3.38;1.35;;;;;;;12.22;100.00;98801.66;4990732;28;20101;-74
2023/01/07 10:38:23;;;;;;;1.60;1.20;;;;;;;11.61;100.00;98794.66;5005433;28;20048;-73
2023/01/07 10:40:55;;;;;;;2.67;1.45;;;;;;;11.92;100.00;98793.16;4995746;28;20029;-72
2023/01/07 10:43:29;;;;;;;2.63;1.60;;;;;;;13.21;100.00;98792.13;4996345;28;20027;-72
2023/01/07 10:46:00;;;;;;;2.35;1.23;;;;;;;14.67;100.00;98787.91;5015574;28;20703;-72
2023/01/07 10:48:47;;;;;;;4.20;1.63;;;;;;;13.71;100.00;98775.81;4990640;28;20034;-72
2023/01/07 10:51:18;;;;;;;2.03;1.25;;;;;;;13.62;100.00;98755.41;4989224;28;20042;-72
2023/01/07 10:54:11;;;;;;;2.33;1.50;;;;;;;12.91;100.00;98781.03;5011776;28;20102;-71
2023/01/07 10:56:50;;;;;;;3.10;1.23;;;;;;;11.94;100.00;98770.22;4991983;28;20057;-74
2023/01/07 10:59:18;;;;;;;2.50;1.30;;;;;;;11.76;100.00;98772.72;5004810;28;20148;-75
2023/01/07 11:01:50;;;;;;;3.25;1.77;;;;;;;12.07;100.00;98767.47;5004860;28;20069;-68
2023/01/07 11:04:16;;;;;;;4.55;1.73;;;;;;;11.91;100.00;98740.81;5009457;28;20087;-80
2023/01/07 11:06:48;;;;;;;2.95;1.90;;;;;;;12.51;100.00;98759.56;4997408;28;20029;-76
2023/01/07 11:09:18;;;;;;;3.47;1.60;;;;;;;15.07;100.00;98740.19;5006327;28;22890;-76
2023/01/07 11:11:45;;;;;;;2.53;1.55;;;;;;;17.95;71.81;98732.75;4994053;28;20048;-72
2023/01/07 11:14:29;;;;;;;2.58;1.50;;;;;;;18.65;64.35;98729.44;5013353;28;20033;-70
2023/01/07 11:17:35;;;;;;;3.83;1.73;;;;;;;20.46;56.72;98731.31;4998153;28;20026;-81
2023/01/07 11:20:01;;;;;;;3.38;1.70;;;;;;;19.72;57.44;98716.69;4996063;28;20503;-74
2023/01/07 11:22:26;;;;;;;2.40;1.75;;;;;;;15.80;67.61;98738.97;5015085;28;20029;-77
2023/01/07 11:24:53;;;;;;;2.88;2.00;;;;;;;14.64;80.67;98731.19;4992312;28;20025;-73
2023/01/07 11:27:22;;;;;;;2.97;1.60;;;;;;;15.97;76.94;98704.41;4996744;28;20104;-76
2023/01/07 11:29:53;;;;;;;2.63;1.90;;;;;;;17.74;67.17;98715.19;4991685;28;20479;-75
2023/01/07 11:32:31;;;;;;;2.83;1.55;;;;;;;18.64;61.86;98703.97;4990182;28;20044;-75
2023/01/07 11:35:14;;;;;;;2.10;1.38;;;;;;;19.79;58.12;98695.34;5003451;28;20040;-74
2023/01/07 11:37:42;;;;;;;1.83;1.30;;;;;;;21.06;54.42;98677.56;4984143;28;20025;-75
2023/01/07 11:40:13;;;;;;;1.85;1.30;;;;;;;20.34;53.08;98702.16;4992411;28;20026;-76
2023/01/07 11:42:59;;;;;;;1.80;1.27;;;;;;;21.81;50.50;98691.53;4989399;28;20514;-75
2023/01/07 11:45:27;;;;;;;3.05;1.67;;;;;;;20.81;50.86;98672.06;5009752;28;22426;-75
2023/01/07 11:48:04;;;;;;;2.25;1.70;;;;;;;20.32;51.96;98676.88;4991588;28;20551;-76